createdAt,value
2019-02-07T00:01:37.165Z,25.07
2019-02-07T00:04:07.691Z,25.13
2019-02-07T00:06:37.313Z,23.73
2019-02-07T00:09:10.275Z,23.73
2019-02-07T00:11:40.082Z,23.93
2019-02-07T00:14:09.942Z,23.37
2019-02-07T00:16:39.669Z,23.40
2019-02-07T00:19:09.407Z,24.20
2019-02-07T00:21:39.129Z,22.83
2019-02-07T00:24:09.365Z,21.80
2019-02-07T00:26:39.157Z,21.47
2019-02-07T00:29:08.834Z,22.67
2019-02-07T00:31:38.604Z,24.60
2019-02-07T00:34:08.293Z,22.37
2019-02-07T00:36:37.929Z,22.97
2019-02-07T00:39:09.569Z,20.37
2019-02-07T00:41:39.707Z,21.23
2019-02-07T00:44:09.480Z,21.93
2019-02-07T00:46:39.153Z,21.17
2019-02-07T00:49:08.918Z,22.63
2019-02-07T00:51:38.631Z,21.63
2019-02-07T00:54:08.562Z,21.00
2019-02-07T00:56:39.854Z,23.17
2019-02-07T00:59:09.773Z,21.97
2019-02-07T01:01:39.679Z,22.67
2019-02-07T01:04:09.761Z,22.47
2019-02-07T01:06:39.529Z,22.40
2019-02-07T01:09:10.314Z,22.33
2019-02-07T01:11:40.128Z,22.07
2019-02-07T01:14:09.935Z,21.40
2019-02-07T01:16:39.658Z,22.87
2019-02-07T01:19:09.749Z,24.43
2019-02-07T01:21:39.530Z,23.70
2019-02-07T01:24:09.605Z,24.23
2019-02-07T01:26:39.383Z,25.77
2019-02-07T01:29:09.153Z,25.50
2019-02-07T01:31:38.865Z,25.47
2019-02-07T01:34:08.593Z,26.90
2019-02-07T01:36:38.294Z,25.83
2019-02-07T01:39:09.606Z,23.57
2019-02-07T01:41:39.420Z,24.67
2019-02-07T01:44:09.117Z,25.73
2019-02-07T01:46:38.832Z,26.37
2019-02-07T01:49:08.654Z,27.43
2019-02-07T01:51:38.506Z,27.53
2019-02-07T01:54:08.315Z,27.03
2019-02-07T01:56:38.017Z,27.63
2019-02-07T01:59:07.781Z,24.53
2019-02-07T02:01:37.589Z,26.70
2019-02-07T02:04:07.354Z,26.77
2019-02-07T02:06:37.377Z,26.13
2019-02-07T02:09:08.576Z,25.47
2019-02-07T02:11:38.336Z,26.00
2019-02-07T02:14:08.353Z,25.70
2019-02-07T02:16:38.011Z,27.20
2019-02-07T02:19:07.758Z,24.93
2019-02-07T02:21:37.612Z,25.87
2019-02-07T02:24:07.368Z,26.37
2019-02-07T02:26:37.081Z,26.93
2019-02-07T02:29:06.955Z,25.37
2019-02-07T02:31:36.881Z,26.40
2019-02-07T02:34:06.723Z,26.67
2019-02-07T02:36:36.505Z,24.93
2019-02-07T02:39:09.329Z,25.20
2019-02-07T02:41:39.077Z,26.17
2019-02-07T02:44:08.814Z,25.93
2019-02-07T02:46:38.567Z,26.13
2019-02-07T02:49:08.684Z,26.83
2019-02-07T02:51:38.505Z,26.47
2019-02-07T02:54:09.829Z,26.17
2019-02-07T02:56:39.522Z,27.20
2019-02-07T02:59:09.234Z,26.57
2019-02-07T03:01:59.394Z,27.53
2019-02-07T03:04:43.699Z,26.60
2019-02-07T03:07:35.324Z,27.23
2019-02-07T03:10:27.673Z,27.47
2019-02-07T03:13:16.267Z,28.53
2019-02-07T03:16:04.609Z,27.30
2019-02-07T03:19:11.352Z,26.23
2019-02-07T03:21:54.709Z,26.90
2019-02-07T03:24:52.121Z,26.57
2019-02-07T03:27:32.746Z,26.07
2019-02-07T03:30:36.197Z,27.33
2019-02-07T03:33:24.799Z,25.97
2019-02-07T03:36:13.427Z,25.50
2019-02-07T03:39:16.942Z,27.13
2019-02-07T03:42:11.761Z,26.37
2019-02-07T03:45:00.882Z,25.87
2019-02-07T03:47:40.409Z,29.60
2019-02-07T03:50:27.597Z,29.73
2019-02-07T03:53:14.619Z,27.30
2019-02-07T03:56:10.468Z,27.90
2019-02-07T03:58:58.254Z,27.77
2019-02-07T04:01:56.149Z,28.10
2019-02-07T04:04:43.057Z,30.03
2019-02-07T04:07:34.610Z,28.57
2019-02-07T04:10:38.924Z,26.90
2019-02-07T04:13:26.004Z,27.07
2019-02-07T04:16:17.533Z,29.10
2019-02-07T04:19:24.121Z,29.37
2019-02-07T04:22:15.775Z,42.87
2019-02-07T04:25:04.288Z,29.57
2019-02-07T04:27:52.813Z,29.60
2019-02-07T04:30:40.148Z,29.17
2019-02-07T04:33:28.755Z,28.40
2019-02-07T04:36:18.892Z,30.67
2019-02-07T04:39:10.638Z,27.73
2019-02-07T04:42:01.973Z,27.63
2019-02-07T04:44:50.554Z,29.73
2019-02-07T04:47:41.965Z,28.57
2019-02-07T04:50:48.661Z,28.40
2019-02-07T04:53:46.124Z,26.33
2019-02-07T04:56:27.050Z,28.03
2019-02-07T04:59:12.795Z,27.47
2019-02-07T05:01:59.926Z,26.93
2019-02-07T05:04:47.469Z,26.20
2019-02-07T05:07:34.476Z,28.37
2019-02-07T05:10:38.978Z,27.70
2019-02-07T05:13:42.762Z,27.43
2019-02-07T05:16:23.380Z,26.67
2019-02-07T05:19:12.008Z,26.20
2019-02-07T05:22:03.448Z,27.17
2019-02-07T05:24:55.101Z,27.37
2019-02-07T05:27:43.855Z,27.13
2019-02-07T05:30:24.532Z,26.07
2019-02-07T05:33:15.844Z,26.63
2019-02-07T05:36:22.559Z,26.73
2019-02-07T05:39:14.124Z,27.00
2019-02-07T05:42:01.405Z,26.23
2019-02-07T05:44:52.825Z,26.13
2019-02-07T05:47:44.144Z,26.17
2019-02-07T05:50:36.417Z,26.40
2019-02-07T05:53:24.671Z,26.03
2019-02-07T05:56:13.305Z,25.17
2019-02-07T05:58:59.714Z,25.97
2019-02-07T06:01:54.020Z,25.63
2019-02-07T06:04:41.338Z,24.43
2019-02-07T06:07:40.201Z,25.40
2019-02-07T06:10:48.221Z,26.47
2019-02-07T06:13:52.020Z,25.83
2019-02-07T06:16:30.359Z,25.40
2019-02-07T06:19:17.441Z,26.77
2019-02-07T06:22:09.365Z,26.07
2019-02-07T06:25:06.647Z,26.93
2019-02-07T06:28:01.190Z,26.63
2019-02-07T06:30:47.773Z,26.53
2019-02-07T06:33:35.216Z,25.83
2019-02-07T06:36:16.152Z,25.47
2019-02-07T06:39:13.740Z,28.03
2019-02-07T06:42:00.856Z,28.10
2019-02-07T06:44:58.980Z,26.87
2019-02-07T06:47:45.952Z,25.93
2019-02-07T06:50:35.515Z,26.97
2019-02-07T06:53:20.925Z,27.53
2019-02-07T06:56:24.493Z,25.60
2019-02-07T06:59:13.117Z,25.53
2019-02-07T07:02:02.143Z,28.17
2019-02-07T07:04:42.662Z,26.83
2019-02-07T07:07:40.302Z,26.23
2019-02-07T07:10:39.935Z,26.13
2019-02-07T07:13:24.606Z,25.97
2019-02-07T07:16:11.161Z,26.97
2019-02-07T07:18:54.460Z,28.10
2019-02-07T07:21:41.491Z,28.03
2019-02-07T07:24:30.013Z,25.83
2019-02-07T07:27:24.430Z,27.20
2019-02-07T07:30:18.913Z,27.67
2019-02-07T07:33:25.685Z,26.40
2019-02-07T07:36:21.405Z,26.33
2019-02-07T07:39:19.678Z,26.03
2019-02-07T07:42:08.541Z,25.63
2019-02-07T07:44:57.160Z,25.13
2019-02-07T07:47:45.773Z,25.70
2019-02-07T07:50:33.010Z,24.70
2019-02-07T07:53:24.618Z,23.90
2019-02-07T07:56:22.154Z,26.20
2019-02-07T07:59:06.293Z,24.80
2019-02-07T08:01:54.877Z,24.00
2019-02-07T08:04:43.497Z,24.93
2019-02-07T08:07:24.965Z,25.93
2019-02-07T08:10:12.222Z,25.27
2019-02-07T08:13:09.643Z,25.93
2019-02-07T08:15:48.561Z,24.83
2019-02-07T08:18:39.941Z,25.50
2019-02-07T08:21:27.112Z,26.13
2019-02-07T08:24:10.386Z,25.57
2019-02-07T08:27:04.567Z,25.33
2019-02-07T08:30:02.269Z,25.10
2019-02-07T08:32:48.264Z,26.70
2019-02-07T08:35:45.976Z,26.17
2019-02-07T08:38:46.451Z,25.27
2019-02-07T08:41:40.858Z,24.87
2019-02-07T08:44:28.098Z,25.43
2019-02-07T08:47:16.709Z,23.13
2019-02-07T08:50:08.293Z,23.30
2019-02-07T08:53:11.848Z,23.50
2019-02-07T08:56:18.439Z,23.40
2019-02-07T08:59:13.114Z,24.03
2019-02-07T09:02:07.489Z,23.57
2019-02-07T09:04:54.750Z,23.83
2019-02-07T09:07:36.764Z,24.23
2019-02-07T09:10:26.533Z,24.60
2019-02-07T09:13:25.966Z,25.40
2019-02-07T09:16:22.717Z,24.40
2019-02-07T09:19:09.706Z,24.17
2019-02-07T09:21:58.942Z,23.77
2019-02-07T09:24:46.068Z,22.90
2019-02-07T09:27:34.043Z,23.50
2019-02-07T09:30:26.133Z,26.40
2019-02-07T09:33:26.659Z,24.93
2019-02-07T09:36:12.727Z,27.27
2019-02-07T09:38:55.453Z,25.53
2019-02-07T09:41:50.320Z,25.27
2019-02-07T09:44:50.390Z,25.03
2019-02-07T09:47:41.761Z,24.47
2019-02-07T09:50:29.664Z,23.30
2019-02-07T09:53:05.320Z,23.90
2019-02-07T09:55:52.337Z,24.23
2019-02-07T09:58:47.305Z,22.20
2019-02-07T10:01:35.910Z,22.70
2019-02-07T10:04:28.031Z,24.70
2019-02-07T10:07:19.732Z,24.20
2019-02-07T10:10:12.214Z,23.47
2019-02-07T10:13:09.905Z,23.83
2019-02-07T10:16:13.462Z,22.97
2019-02-07T10:19:16.694Z,23.17
2019-02-07T10:22:05.215Z,24.40
2019-02-07T10:24:52.349Z,23.60
2019-02-07T10:27:40.995Z,24.47
2019-02-07T10:30:26.263Z,23.40
2019-02-07T10:33:20.685Z,25.13
2019-02-07T10:36:02.353Z,25.40
2019-02-07T10:38:50.081Z,22.90
2019-02-07T10:41:38.716Z,25.83
2019-02-07T10:44:27.296Z,23.70
2019-02-07T10:47:15.853Z,22.63
2019-02-07T10:50:07.180Z,23.43
2019-02-07T10:53:04.578Z,22.97
2019-02-07T10:55:51.849Z,24.07
2019-02-07T10:58:38.888Z,21.93
2019-02-07T11:01:45.917Z,22.83
2019-02-07T11:04:46.292Z,22.63
2019-02-07T11:07:28.770Z,23.43
2019-02-07T11:10:13.388Z,22.47
2019-02-07T11:13:00.558Z,23.47
2019-02-07T11:15:54.986Z,23.33
2019-02-07T11:18:55.066Z,21.23
2019-02-07T11:21:33.016Z,23.63
2019-02-07T11:24:20.242Z,23.40
2019-02-07T11:27:07.037Z,21.67
2019-02-07T11:30:10.649Z,20.90
2019-02-07T11:33:14.303Z,20.77
2019-02-07T11:36:01.597Z,21.03
2019-02-07T11:38:48.832Z,22.00
2019-02-07T11:41:40.106Z,21.75
2019-02-07T11:44:15.585Z,22.03
2019-02-07T11:47:05.313Z,21.70
2019-02-07T11:49:52.014Z,21.57
2019-02-07T11:52:48.353Z,21.00
2019-02-07T11:55:29.084Z,19.80
2019-02-07T11:58:29.649Z,20.97
2019-02-07T12:01:16.750Z,20.65
2019-02-07T12:03:57.837Z,18.30
2019-02-07T12:06:52.425Z,18.15
2019-02-07T12:09:44.038Z,18.12
2019-02-07T12:12:31.148Z,19.00
2019-02-07T12:15:19.838Z,18.30
2019-02-07T12:18:17.742Z,17.75
2019-02-07T12:21:21.361Z,17.25
2019-02-07T12:24:24.930Z,17.90
2019-02-07T12:27:12.113Z,18.73
2019-02-07T12:30:03.429Z,18.12
2019-02-07T12:32:40.671Z,17.87
2019-02-07T12:35:38.983Z,17.07
2019-02-07T12:38:41.062Z,19.42
2019-02-07T12:41:28.132Z,17.95
2019-02-07T12:44:19.633Z,18.15
2019-02-07T12:47:02.699Z,17.43
2019-02-07T12:49:49.854Z,17.77
2019-02-07T12:52:38.531Z,18.37
2019-02-07T12:55:26.967Z,18.15
2019-02-07T12:58:13.989Z,17.15
2019-02-07T13:01:01.872Z,16.83
2019-02-07T13:03:49.149Z,17.10
2019-02-07T13:06:40.658Z,18.17
2019-02-07T13:09:29.057Z,17.67
2019-02-07T13:12:15.353Z,17.70
2019-02-07T13:14:54.072Z,17.83
2019-02-07T13:17:40.577Z,17.77
2019-02-07T13:20:46.597Z,18.07
2019-02-07T13:23:38.423Z,17.03
2019-02-07T13:26:24.508Z,17.50
2019-02-07T13:29:11.630Z,19.70
2019-02-07T13:31:59.087Z,18.67
2019-02-07T13:35:02.641Z,18.50
2019-02-07T13:37:48.241Z,19.77
2019-02-07T13:40:39.677Z,16.50
2019-02-07T13:43:40.253Z,16.87
2019-02-07T13:46:28.975Z,18.70
2019-02-07T13:49:16.028Z,17.07
2019-02-07T13:52:04.340Z,16.97
2019-02-07T13:54:56.357Z,16.67
2019-02-07T13:57:48.013Z,18.33
2019-02-07T14:00:37.118Z,17.33
2019-02-07T14:03:24.778Z,16.00
2019-02-07T14:06:13.545Z,18.17
2019-02-07T14:09:04.961Z,17.80
2019-02-07T14:11:59.610Z,16.00
2019-02-07T14:14:57.094Z,16.17
2019-02-07T14:17:55.188Z,16.57
2019-02-07T14:20:35.942Z,16.13
2019-02-07T14:23:29.780Z,16.47
2019-02-07T14:26:15.572Z,15.97
2019-02-07T14:29:02.663Z,17.83
2019-02-07T14:31:49.829Z,16.77
2019-02-07T14:34:50.061Z,15.97
2019-02-07T14:37:50.486Z,16.00
2019-02-07T14:40:48.033Z,17.03
2019-02-07T14:43:38.014Z,16.33
2019-02-07T14:46:23.536Z,17.20
2019-02-07T14:48:53.312Z,16.93
2019-02-07T14:51:23.125Z,16.13
2019-02-07T14:53:52.942Z,16.43
2019-02-07T14:56:22.731Z,17.27
2019-02-07T14:58:52.722Z,14.57
2019-02-07T15:01:22.520Z,16.60
2019-02-07T15:03:52.188Z,15.33
2019-02-07T15:06:21.832Z,15.73
2019-02-07T15:08:51.518Z,15.17
2019-02-07T15:11:21.248Z,15.27
2019-02-07T15:13:51.077Z,16.00
2019-02-07T15:16:20.961Z,15.87
2019-02-07T15:18:50.697Z,15.90
2019-02-07T15:21:20.662Z,15.00
2019-02-07T15:23:50.427Z,15.67
2019-02-07T15:26:20.125Z,15.87
2019-02-07T15:28:49.911Z,15.30
2019-02-07T15:31:19.740Z,15.80
2019-02-07T15:33:49.613Z,15.13
2019-02-07T15:36:19.473Z,16.10
2019-02-07T15:38:49.275Z,15.37
2019-02-07T15:41:19.037Z,15.37
2019-02-07T15:43:48.794Z,15.40
2019-02-07T15:46:18.652Z,15.93
2019-02-07T15:48:48.360Z,15.43
2019-02-07T15:51:18.096Z,14.87
2019-02-07T15:53:47.777Z,14.67
2019-02-07T15:56:17.526Z,15.97
2019-02-07T15:59:06.110Z,15.13
2019-02-07T16:01:46.392Z,13.80
2019-02-07T16:04:18.945Z,15.23
2019-02-07T16:06:48.914Z,14.20
2019-02-07T16:09:18.687Z,14.13
2019-02-07T16:11:48.573Z,13.33
2019-02-07T16:14:18.405Z,14.13
2019-02-07T16:16:48.181Z,14.30
2019-02-07T16:19:18.273Z,14.27
2019-02-07T16:21:48.158Z,13.40
2019-02-07T16:24:18.149Z,14.37
2019-02-07T16:26:47.869Z,15.37
2019-02-07T16:29:17.729Z,14.20
2019-02-07T16:31:47.478Z,13.90
2019-02-07T16:34:18.909Z,14.03
2019-02-07T16:36:48.830Z,13.77
2019-02-07T16:39:18.941Z,13.43
2019-02-07T16:41:48.645Z,14.10
2019-02-07T16:44:18.759Z,14.50
2019-02-07T16:46:48.570Z,15.17
2019-02-07T16:49:18.700Z,13.33
2019-02-07T16:51:48.346Z,14.80
2019-02-07T16:54:18.169Z,15.03
2019-02-07T16:56:47.921Z,14.60
2019-02-07T16:59:17.718Z,14.10
2019-02-07T17:01:47.894Z,13.37
2019-02-07T17:04:17.748Z,14.30
2019-02-07T17:06:47.570Z,14.20
2019-02-07T17:09:29.718Z,14.37
2019-02-07T17:12:01.094Z,14.73
2019-02-07T17:14:31.301Z,14.80
2019-02-07T17:17:01.185Z,14.33
2019-02-07T17:19:30.985Z,13.70
2019-02-07T17:22:00.850Z,13.93
2019-02-07T17:24:30.648Z,13.83
2019-02-07T17:27:00.478Z,14.93
2019-02-07T17:29:30.800Z,14.50
2019-02-07T17:32:00.591Z,13.70
2019-02-07T17:34:30.326Z,13.83
2019-02-07T17:37:00.042Z,13.97
2019-02-07T17:39:29.797Z,13.77
2019-02-07T17:41:59.689Z,13.83
2019-02-07T17:44:29.642Z,13.53
2019-02-07T17:46:59.386Z,15.07
2019-02-07T17:49:29.201Z,14.40
2019-02-07T17:51:58.906Z,13.60
2019-02-07T17:54:28.688Z,14.20
2019-02-07T17:56:58.828Z,14.13
2019-02-07T17:59:28.473Z,13.93
2019-02-07T18:01:58.261Z,14.43
2019-02-07T18:04:28.037Z,13.63
2019-02-07T18:06:57.839Z,14.07
2019-02-07T18:09:27.635Z,14.33
2019-02-07T18:11:57.747Z,15.03
2019-02-07T18:14:27.472Z,16.43
2019-02-07T18:16:57.142Z,18.33
2019-02-07T18:19:27.126Z,16.27
2019-02-07T18:21:57.361Z,15.67
2019-02-07T18:24:27.117Z,15.50
2019-02-07T18:26:57.208Z,16.13
2019-02-07T18:29:27.085Z,16.23
2019-02-07T18:31:56.802Z,15.97
2019-02-07T18:34:26.478Z,15.53
2019-02-07T18:36:56.236Z,15.03
2019-02-07T18:39:26.020Z,15.10
2019-02-07T18:41:56.114Z,15.17
2019-02-07T18:44:25.877Z,13.90
2019-02-07T18:46:55.710Z,15.77
2019-02-07T18:49:25.464Z,14.70
2019-02-07T18:51:55.099Z,15.73
2019-02-07T18:54:24.821Z,15.60
2019-02-07T18:56:54.923Z,15.90
2019-02-07T18:59:24.726Z,14.87
2019-02-07T19:01:54.406Z,16.00
2019-02-07T19:04:24.093Z,16.30
2019-02-07T19:06:53.788Z,14.70
2019-02-07T19:09:23.486Z,15.73
2019-02-07T19:11:53.485Z,16.93
2019-02-07T19:14:23.469Z,16.23
2019-02-07T19:16:53.271Z,16.20
2019-02-07T19:19:23.083Z,16.63
2019-02-07T19:21:57.314Z,15.10
2019-02-07T19:24:24.389Z,16.80
2019-02-07T19:26:54.111Z,15.73
2019-02-07T19:29:23.977Z,15.80
2019-02-07T19:31:53.653Z,16.57
2019-02-07T19:34:23.309Z,15.70
2019-02-07T19:36:53.000Z,16.30
2019-02-07T19:39:23.768Z,16.60
2019-02-07T19:41:53.565Z,16.00
2019-02-07T19:44:23.368Z,16.47
2019-02-07T19:46:53.220Z,18.10
2019-02-07T19:49:23.120Z,17.00
2019-02-07T19:51:52.818Z,17.07
2019-02-07T19:54:22.597Z,16.53
2019-02-07T19:56:52.268Z,17.70
2019-02-07T19:59:22.321Z,16.47
2019-02-07T20:01:52.080Z,16.70
2019-02-07T20:04:21.882Z,17.47
2019-02-07T20:06:51.709Z,17.73
2019-02-07T20:09:21.333Z,16.80
2019-02-07T20:11:51.286Z,17.63
2019-02-07T20:14:21.102Z,16.37
2019-02-07T20:16:50.796Z,16.73
2019-02-07T20:19:20.517Z,17.03
2019-02-07T20:21:50.277Z,17.00
2019-02-07T20:24:20.040Z,17.30
2019-02-07T20:26:49.931Z,17.73
2019-02-07T20:29:19.558Z,17.63
2019-02-07T20:31:49.289Z,17.07
2019-02-07T20:34:19.044Z,16.80
2019-02-07T20:36:48.746Z,17.13
2019-02-07T20:39:18.358Z,17.73
2019-02-07T20:41:48.097Z,17.53
2019-02-07T20:44:17.854Z,16.10
2019-02-07T20:46:47.613Z,18.30
2019-02-07T20:49:17.329Z,17.43
2019-02-07T20:51:47.101Z,17.27
2019-02-07T20:54:17.026Z,17.03
2019-02-07T20:56:46.811Z,17.73
2019-02-07T20:59:16.870Z,17.73
2019-02-07T21:01:46.619Z,17.23
2019-02-07T21:04:16.338Z,18.17
2019-02-07T21:06:46.129Z,16.97
2019-02-07T21:09:15.909Z,18.20
2019-02-07T21:11:45.700Z,18.87
2019-02-07T21:14:15.889Z,18.30
2019-02-07T21:16:45.645Z,18.20
2019-02-07T21:19:15.494Z,18.27
2019-02-07T21:21:45.237Z,17.13
2019-02-07T21:24:14.934Z,18.73
2019-02-07T21:26:44.720Z,18.63
2019-02-07T21:29:14.465Z,18.83
2019-02-07T21:31:44.485Z,17.87
2019-02-07T21:34:14.257Z,19.03
2019-02-07T21:36:43.926Z,16.80
2019-02-07T21:39:13.678Z,19.90
2019-02-07T21:41:43.469Z,20.10
2019-02-07T21:44:13.209Z,19.30
2019-02-07T21:46:43.297Z,19.73
2019-02-07T21:49:13.106Z,20.07
2019-02-07T21:51:42.823Z,19.67
2019-02-07T21:54:12.554Z,21.00
2019-02-07T21:56:42.381Z,22.23
2019-02-07T21:59:12.168Z,22.87
2019-02-07T22:01:42.289Z,22.37
2019-02-07T22:04:12.060Z,23.37
2019-02-07T22:06:41.870Z,24.00
2019-02-07T22:09:15.213Z,25.13
2019-02-07T22:11:45.128Z,23.60
2019-02-07T22:14:14.885Z,23.17
2019-02-07T22:16:44.702Z,25.97
2019-02-07T22:19:14.466Z,25.87
2019-02-07T22:21:44.209Z,27.80
2019-02-07T22:24:14.066Z,28.10
2019-02-07T22:26:44.769Z,27.80
2019-02-07T22:29:14.501Z,26.93
2019-02-07T22:31:44.275Z,26.00
2019-02-07T22:34:14.191Z,24.87
2019-02-07T22:36:43.962Z,24.87
2019-02-07T22:39:13.677Z,24.40
2019-02-07T22:41:43.410Z,22.23
2019-02-07T22:44:13.178Z,22.20
2019-02-07T22:46:43.393Z,23.50
2019-02-07T22:49:13.192Z,23.10
2019-02-07T22:51:42.969Z,22.27
2019-02-07T22:54:12.807Z,20.83
2019-02-07T22:56:45.641Z,21.43
2019-02-07T22:59:13.966Z,22.80
2019-02-07T23:01:50.620Z,21.53
2019-02-07T23:04:21.033Z,22.50
2019-02-07T23:06:50.788Z,22.33
2019-02-07T23:09:20.710Z,22.70
2019-02-07T23:11:50.658Z,21.77
2019-02-07T23:14:20.394Z,22.73
2019-02-07T23:16:50.224Z,21.77
2019-02-07T23:19:20.029Z,23.43
2019-02-07T23:21:49.713Z,23.27
2019-02-07T23:24:19.422Z,21.33
2019-02-07T23:26:50.137Z,23.47
2019-02-07T23:29:19.865Z,23.03
2019-02-07T23:31:49.588Z,25.80
2019-02-07T23:34:19.301Z,28.33
2019-02-07T23:36:48.961Z,25.53
2019-02-07T23:39:18.688Z,25.23
2019-02-07T23:41:50.251Z,27.73
2019-02-07T23:44:19.906Z,27.60
2019-02-07T23:46:49.708Z,30.03
2019-02-07T23:49:19.445Z,30.23
2019-02-07T23:51:49.285Z,29.60
2019-02-07T23:54:19.017Z,29.03
2019-02-07T23:56:49.138Z,31.07
2019-02-07T23:59:18.922Z,28.93
